sensor_id;sensor_type;location;lat;lon;timestamp;P1;durP1;ratioP1;P2;durP2;ratioP2
17832;SDS011;9041;49.718;21.798;2022-09-30T00:01:43;15.02;;;7.47;;
17832;SDS011;9041;49.718;21.798;2022-09-30T00:04:13;19.05;;;7.70;;
17832;SDS011;9041;49.718;21.798;2022-09-30T00:06:41;13.98;;;7.00;;
17832;SDS011;9041;49.718;21.798;2022-09-30T00:09:11;13.15;;;7.43;;
17832;SDS011;9041;49.718;21.798;2022-09-30T00:11:39;14.45;;;7.75;;
17832;SDS011;9041;49.718;21.798;2022-09-30T00:14:06;13.25;;;7.50;;
17832;SDS011;9041;49.718;21.798;2022-09-30T00:16:35;14.25;;;7.35;;
17832;SDS011;9041;49.718;21.798;2022-09-30T00:19:02;14.68;;;7.32;;
17832;SDS011;9041;49.718;21.798;2022-09-30T00:21:31;13.68;;;7.40;;
17832;SDS011;9041;49.718;21.798;2022-09-30T00:23:59;13.88;;;7.00;;
17832;SDS011;9041;49.718;21.798;2022-09-30T00:26:25;13.10;;;7.07;;
17832;SDS011;9041;49.718;21.798;2022-09-30T00:28:55;12.68;;;6.95;;
17832;SDS011;9041;49.718;21.798;2022-09-30T00:31:24;14.60;;;7.07;;
17832;SDS011;9041;49.718;21.798;2022-09-30T00:33:51;10.93;;;6.70;;
17832;SDS011;9041;49.718;21.798;2022-09-30T00:36:34;14.48;;;6.90;;
17832;SDS011;9041;49.718;21.798;2022-09-30T00:39:02;11.25;;;6.30;;
17832;SDS011;9041;49.718;21.798;2022-09-30T00:41:30;13.23;;;6.28;;
17832;SDS011;9041;49.718;21.798;2022-09-30T00:43:57;11.00;;;6.30;;
17832;SDS011;9041;49.718;21.798;2022-09-30T00:46:26;10.90;;;6.22;;
17832;SDS011;9041;49.718;21.798;2022-09-30T00:48:56;10.85;;;6.22;;
17832;SDS011;9041;49.718;21.798;2022-09-30T00:51:26;11.23;;;6.50;;
17832;SDS011;9041;49.718;21.798;2022-09-30T00:53:58;10.05;;;6.60;;
17832;SDS011;9041;49.718;21.798;2022-09-30T00:56:27;12.45;;;6.03;;
17832;SDS011;9041;49.718;21.798;2022-09-30T00:58:58;11.18;;;6.30;;
17832;SDS011;9041;49.718;21.798;2022-09-30T01:01:28;14.93;;;6.57;;
17832;SDS011;9041;49.718;21.798;2022-09-30T01:03:58;11.95;;;6.82;;
17832;SDS011;9041;49.718;21.798;2022-09-30T01:06:26;12.85;;;7.55;;
17832;SDS011;9041;49.718;21.798;2022-09-30T01:08:53;14.73;;;7.28;;
17832;SDS011;9041;49.718;21.798;2022-09-30T01:11:24;17.25;;;8.13;;
17832;SDS011;9041;49.718;21.798;2022-09-30T01:13:53;16.10;;;7.38;;
17832;SDS011;9041;49.718;21.798;2022-09-30T01:19:23;19.35;;;7.93;;
17832;SDS011;9041;49.718;21.798;2022-09-30T01:21:58;16.98;;;8.43;;
17832;SDS011;9041;49.718;21.798;2022-09-30T01:24:36;16.40;;;7.75;;
17832;SDS011;9041;49.718;21.798;2022-09-30T01:27:19;15.80;;;6.75;;
17832;SDS011;9041;49.718;21.798;2022-09-30T01:29:59;14.65;;;7.15;;
17832;SDS011;9041;49.718;21.798;2022-09-30T01:32:37;15.18;;;7.43;;
17832;SDS011;9041;49.718;21.798;2022-09-30T01:35:13;14.63;;;7.57;;
17832;SDS011;9041;49.718;21.798;2022-09-30T01:37:50;14.52;;;7.93;;
17832;SDS011;9041;49.718;21.798;2022-09-30T01:40:24;14.90;;;7.30;;
17832;SDS011;9041;49.718;21.798;2022-09-30T01:42:55;14.27;;;7.03;;
17832;SDS011;9041;49.718;21.798;2022-09-30T01:45:31;14.48;;;7.30;;
17832;SDS011;9041;49.718;21.798;2022-09-30T01:48:08;14.77;;;7.50;;
17832;SDS011;9041;49.718;21.798;2022-09-30T01:50:43;13.88;;;7.00;;
17832;SDS011;9041;49.718;21.798;2022-09-30T01:53:14;11.70;;;6.55;;
17832;SDS011;9041;49.718;21.798;2022-09-30T01:55:52;12.35;;;6.78;;
17832;SDS011;9041;49.718;21.798;2022-09-30T01:58:23;12.77;;;6.55;;
17832;SDS011;9041;49.718;21.798;2022-09-30T02:00:57;13.45;;;7.00;;
17832;SDS011;9041;49.718;21.798;2022-09-30T02:03:28;12.02;;;6.57;;
17832;SDS011;9041;49.718;21.798;2022-09-30T02:05:58;11.40;;;6.68;;
17832;SDS011;9041;49.718;21.798;2022-09-30T02:08:28;11.32;;;6.35;;
17832;SDS011;9041;49.718;21.798;2022-09-30T02:10:58;12.45;;;6.80;;
17832;SDS011;9041;49.718;21.798;2022-09-30T02:13:28;10.68;;;6.05;;
17832;SDS011;9041;49.718;21.798;2022-09-30T02:16:00;14.93;;;6.38;;
17832;SDS011;9041;49.718;21.798;2022-09-30T02:18:38;10.38;;;6.03;;
17832;SDS011;9041;49.718;21.798;2022-09-30T02:21:06;11.38;;;6.95;;
17832;SDS011;9041;49.718;21.798;2022-09-30T02:23:36;11.13;;;6.55;;
17832;SDS011;9041;49.718;21.798;2022-09-30T02:26:06;10.15;;;6.43;;
17832;SDS011;9041;49.718;21.798;2022-09-30T02:28:35;10.82;;;6.10;;
17832;SDS011;9041;49.718;21.798;2022-09-30T02:31:03;11.27;;;6.07;;
17832;SDS011;9041;49.718;21.798;2022-09-30T02:33:32;11.38;;;6.50;;
17832;SDS011;9041;49.718;21.798;2022-09-30T02:36:02;11.77;;;7.13;;
17832;SDS011;9041;49.718;21.798;2022-09-30T02:38:38;10.60;;;6.32;;
17832;SDS011;9041;49.718;21.798;2022-09-30T02:41:07;12.75;;;6.97;;
17832;SDS011;9041;49.718;21.798;2022-09-30T02:43:39;13.45;;;6.85;;
17832;SDS011;9041;49.718;21.798;2022-09-30T02:46:07;11.18;;;6.53;;
17832;SDS011;9041;49.718;21.798;2022-09-30T02:48:41;10.20;;;6.53;;
17832;SDS011;9041;49.718;21.798;2022-09-30T02:51:15;14.15;;;6.28;;
17832;SDS011;9041;49.718;21.798;2022-09-30T02:53:44;14.40;;;7.30;;
17832;SDS011;9041;49.718;21.798;2022-09-30T02:56:18;11.77;;;7.05;;
17832;SDS011;9041;49.718;21.798;2022-09-30T02:58:49;12.15;;;6.88;;
17832;SDS011;9041;49.718;21.798;2022-09-30T03:01:17;10.77;;;6.43;;
17832;SDS011;9041;49.718;21.798;2022-09-30T03:03:45;9.15;;;6.20;;
17832;SDS011;9041;49.718;21.798;2022-09-30T03:06:15;11.85;;;6.45;;
17832;SDS011;9041;49.718;21.798;2022-09-30T03:08:43;13.98;;;6.70;;
17832;SDS011;9041;49.718;21.798;2022-09-30T03:11:13;9.55;;;5.75;;
17832;SDS011;9041;49.718;21.798;2022-09-30T03:16:48;10.35;;;6.50;;
17832;SDS011;9041;49.718;21.798;2022-09-30T03:19:28;10.13;;;5.97;;
17832;SDS011;9041;49.718;21.798;2022-09-30T03:22:13;10.57;;;6.07;;
17832;SDS011;9041;49.718;21.798;2022-09-30T03:24:59;9.27;;;5.70;;
17832;SDS011;9041;49.718;21.798;2022-09-30T03:27:36;14.10;;;5.68;;
17832;SDS011;9041;49.718;21.798;2022-09-30T03:30:08;10.40;;;5.60;;
17832;SDS011;9041;49.718;21.798;2022-09-30T03:32:44;10.00;;;5.75;;
17832;SDS011;9041;49.718;21.798;2022-09-30T03:35:20;12.18;;;6.85;;
17832;SDS011;9041;49.718;21.798;2022-09-30T03:37:56;11.50;;;6.43;;
17832;SDS011;9041;49.718;21.798;2022-09-30T03:40:29;10.85;;;5.75;;
17832;SDS011;9041;49.718;21.798;2022-09-30T03:43:01;14.70;;;6.18;;
17832;SDS011;9041;49.718;21.798;2022-09-30T03:45:31;9.45;;;5.30;;
17832;SDS011;9041;49.718;21.798;2022-09-30T03:48:02;11.38;;;5.95;;
17832;SDS011;9041;49.718;21.798;2022-09-30T03:50:35;10.15;;;5.38;;
17832;SDS011;9041;49.718;21.798;2022-09-30T03:53:08;7.82;;;5.05;;
17832;SDS011;9041;49.718;21.798;2022-09-30T03:55:42;11.30;;;5.43;;
17832;SDS011;9041;49.718;21.798;2022-09-30T03:58:13;8.85;;;5.75;;
17832;SDS011;9041;49.718;21.798;2022-09-30T04:00:42;8.45;;;5.63;;
17832;SDS011;9041;49.718;21.798;2022-09-30T04:03:11;9.75;;;5.70;;
17832;SDS011;9041;49.718;21.798;2022-09-30T04:05:41;9.68;;;5.65;;
17832;SDS011;9041;49.718;21.798;2022-09-30T04:08:14;8.88;;;5.00;;
17832;SDS011;9041;49.718;21.798;2022-09-30T04:10:41;12.60;;;6.00;;
17832;SDS011;9041;49.718;21.798;2022-09-30T04:13:09;10.43;;;5.85;;
17832;SDS011;9041;49.718;21.798;2022-09-30T04:15:36;9.45;;;5.13;;
17832;SDS011;9041;49.718;21.798;2022-09-30T04:18:04;9.57;;;5.43;;
17832;SDS011;9041;49.718;21.798;2022-09-30T04:20:31;10.38;;;5.80;;
17832;SDS011;9041;49.718;21.798;2022-09-30T04:22:58;10.48;;;5.20;;
17832;SDS011;9041;49.718;21.798;2022-09-30T04:25:27;10.98;;;5.05;;
17832;SDS011;9041;49.718;21.798;2022-09-30T04:27:54;10.05;;;5.75;;
17832;SDS011;9041;49.718;21.798;2022-09-30T04:30:21;8.43;;;5.13;;
17832;SDS011;9041;49.718;21.798;2022-09-30T04:32:50;11.20;;;5.22;;
17832;SDS011;9041;49.718;21.798;2022-09-30T04:35:17;9.73;;;5.38;;
17832;SDS011;9041;49.718;21.798;2022-09-30T04:37:44;9.10;;;5.00;;
17832;SDS011;9041;49.718;21.798;2022-09-30T04:40:12;8.05;;;4.93;;
17832;SDS011;9041;49.718;21.798;2022-09-30T04:42:41;8.43;;;4.70;;
17832;SDS011;9041;49.718;21.798;2022-09-30T04:45:09;7.50;;;4.40;;
17832;SDS011;9041;49.718;21.798;2022-09-30T04:47:37;7.60;;;4.43;;
17832;SDS011;9041;49.718;21.798;2022-09-30T04:50:04;7.03;;;4.57;;
17832;SDS011;9041;49.718;21.798;2022-09-30T04:52:31;9.02;;;4.97;;
17832;SDS011;9041;49.718;21.798;2022-09-30T04:55:02;6.95;;;4.50;;
17832;SDS011;9041;49.718;21.798;2022-09-30T04:57:29;7.20;;;4.40;;
17832;SDS011;9041;49.718;21.798;2022-09-30T04:59:57;7.60;;;4.60;;
17832;SDS011;9041;49.718;21.798;2022-09-30T05:02:24;8.38;;;4.85;;
17832;SDS011;9041;49.718;21.798;2022-09-30T05:04:51;9.77;;;4.95;;
17832;SDS011;9041;49.718;21.798;2022-09-30T05:07:19;8.40;;;5.05;;
17832;SDS011;9041;49.718;21.798;2022-09-30T05:09:46;7.45;;;4.72;;
17832;SDS011;9041;49.718;21.798;2022-09-30T05:12:17;7.68;;;4.63;;
17832;SDS011;9041;49.718;21.798;2022-09-30T05:14:45;8.80;;;4.97;;
17832;SDS011;9041;49.718;21.798;2022-09-30T05:17:14;8.05;;;4.93;;
17832;SDS011;9041;49.718;21.798;2022-09-30T05:19:40;6.07;;;4.38;;
17832;SDS011;9041;49.718;21.798;2022-09-30T05:22:10;8.18;;;5.03;;
17832;SDS011;9041;49.718;21.798;2022-09-30T05:24:38;7.50;;;4.90;;
17832;SDS011;9041;49.718;21.798;2022-09-30T05:27:11;8.88;;;5.07;;
17832;SDS011;9041;49.718;21.798;2022-09-30T05:29:40;8.38;;;4.70;;
17832;SDS011;9041;49.718;21.798;2022-09-30T05:32:07;7.82;;;4.65;;
17832;SDS011;9041;49.718;21.798;2022-09-30T05:34:35;9.93;;;4.88;;
17832;SDS011;9041;49.718;21.798;2022-09-30T05:37:02;8.43;;;4.47;;
17832;SDS011;9041;49.718;21.798;2022-09-30T05:39:31;7.78;;;4.55;;
17832;SDS011;9041;49.718;21.798;2022-09-30T05:41:58;6.50;;;4.15;;
17832;SDS011;9041;49.718;21.798;2022-09-30T05:44:25;8.30;;;4.50;;
17832;SDS011;9041;49.718;21.798;2022-09-30T05:46:51;7.05;;;4.47;;
17832;SDS011;9041;49.718;21.798;2022-09-30T05:49:20;6.22;;;3.78;;
17832;SDS011;9041;49.718;21.798;2022-09-30T05:51:49;6.28;;;3.80;;
17832;SDS011;9041;49.718;21.798;2022-09-30T05:54:19;7.03;;;4.25;;
17832;SDS011;9041;49.718;21.798;2022-09-30T05:56:45;7.35;;;4.07;;
17832;SDS011;9041;49.718;21.798;2022-09-30T05:59:12;5.75;;;3.75;;
17832;SDS011;9041;49.718;21.798;2022-09-30T06:01:39;9.35;;;4.10;;
17832;SDS011;9041;49.718;21.798;2022-09-30T06:04:06;7.68;;;4.18;;
17832;SDS011;9041;49.718;21.798;2022-09-30T06:06:33;6.40;;;4.57;;
17832;SDS011;9041;49.718;21.798;2022-09-30T06:09:01;9.38;;;4.93;;
17832;SDS011;9041;49.718;21.798;2022-09-30T06:11:28;6.10;;;4.15;;
17832;SDS011;9041;49.718;21.798;2022-09-30T06:13:55;8.88;;;4.53;;
17832;SDS011;9041;49.718;21.798;2022-09-30T06:16:28;6.00;;;4.13;;
17832;SDS011;9041;49.718;21.798;2022-09-30T06:18:56;6.72;;;4.10;;
17832;SDS011;9041;49.718;21.798;2022-09-30T06:21:23;8.35;;;4.88;;
17832;SDS011;9041;49.718;21.798;2022-09-30T06:23:50;8.75;;;4.20;;
17832;SDS011;9041;49.718;21.798;2022-09-30T06:26:18;12.10;;;5.32;;
17832;SDS011;9041;49.718;21.798;2022-09-30T06:28:45;13.50;;;5.03;;
17832;SDS011;9041;49.718;21.798;2022-09-30T06:31:12;9.52;;;4.50;;
17832;SDS011;9041;49.718;21.798;2022-09-30T06:33:39;13.07;;;5.43;;
17832;SDS011;9041;49.718;21.798;2022-09-30T06:36:06;9.68;;;4.93;;
17832;SDS011;9041;49.718;21.798;2022-09-30T06:38:34;9.63;;;5.03;;
17832;SDS011;9041;49.718;21.798;2022-09-30T06:41:03;9.70;;;5.00;;
17832;SDS011;9041;49.718;21.798;2022-09-30T06:43:34;9.77;;;5.28;;
17832;SDS011;9041;49.718;21.798;2022-09-30T06:46:01;7.70;;;4.55;;
17832;SDS011;9041;49.718;21.798;2022-09-30T06:48:27;6.18;;;4.18;;
17832;SDS011;9041;49.718;21.798;2022-09-30T06:50:56;10.48;;;3.95;;
17832;SDS011;9041;49.718;21.798;2022-09-30T06:53:23;6.18;;;3.90;;
17832;SDS011;9041;49.718;21.798;2022-09-30T06:55:53;6.85;;;4.20;;
17832;SDS011;9041;49.718;21.798;2022-09-30T06:58:27;6.35;;;3.78;;
17832;SDS011;9041;49.718;21.798;2022-09-30T07:00:59;7.30;;;4.70;;
17832;SDS011;9041;49.718;21.798;2022-09-30T07:03:30;10.15;;;4.35;;
17832;SDS011;9041;49.718;21.798;2022-09-30T07:05:58;6.88;;;3.90;;
17832;SDS011;9041;49.718;21.798;2022-09-30T07:08:26;6.53;;;3.92;;
17832;SDS011;9041;49.718;21.798;2022-09-30T07:10:57;7.00;;;4.20;;
17832;SDS011;9041;49.718;21.798;2022-09-30T07:13:24;7.28;;;4.50;;
17832;SDS011;9041;49.718;21.798;2022-09-30T07:15:51;7.15;;;4.40;;
17832;SDS011;9041;49.718;21.798;2022-09-30T07:18:22;6.90;;;4.38;;
17832;SDS011;9041;49.718;21.798;2022-09-30T07:20:51;5.38;;;3.72;;
17832;SDS011;9041;49.718;21.798;2022-09-30T07:23:19;5.47;;;3.67;;
17832;SDS011;9041;49.718;21.798;2022-09-30T07:25:50;8.68;;;3.70;;
17832;SDS011;9041;49.718;21.798;2022-09-30T07:28:17;6.07;;;3.30;;
17832;SDS011;9041;49.718;21.798;2022-09-30T07:30:44;5.78;;;3.42;;
17832;SDS011;9041;49.718;21.798;2022-09-30T07:33:11;5.43;;;3.50;;
17832;SDS011;9041;49.718;21.798;2022-09-30T07:35:46;6.05;;;3.63;;
17832;SDS011;9041;49.718;21.798;2022-09-30T07:38:19;6.22;;;3.88;;
17832;SDS011;9041;49.718;21.798;2022-09-30T07:40:50;6.93;;;3.95;;
17832;SDS011;9041;49.718;21.798;2022-09-30T07:43:22;6.10;;;3.58;;
17832;SDS011;9041;49.718;21.798;2022-09-30T07:46:01;8.05;;;3.92;;
17832;SDS011;9041;49.718;21.798;2022-09-30T07:48:28;5.22;;;3.85;;
17832;SDS011;9041;49.718;21.798;2022-09-30T07:51:14;6.80;;;3.85;;
17832;SDS011;9041;49.718;21.798;2022-09-30T07:53:43;12.32;;;4.40;;
17832;SDS011;9041;49.718;21.798;2022-09-30T07:56:11;8.27;;;3.92;;
17832;SDS011;9041;49.718;21.798;2022-09-30T07:58:39;7.80;;;3.88;;
17832;SDS011;9041;49.718;21.798;2022-09-30T08:01:06;6.25;;;3.80;;
17832;SDS011;9041;49.718;21.798;2022-09-30T08:03:34;6.10;;;4.00;;
17832;SDS011;9041;49.718;21.798;2022-09-30T08:06:05;6.90;;;3.90;;
17832;SDS011;9041;49.718;21.798;2022-09-30T08:08:34;6.65;;;3.83;;
17832;SDS011;9041;49.718;21.798;2022-09-30T08:11:01;5.57;;;3.75;;
17832;SDS011;9041;49.718;21.798;2022-09-30T08:13:32;6.72;;;4.35;;
17832;SDS011;9041;49.718;21.798;2022-09-30T08:15:59;6.60;;;4.10;;
17832;SDS011;9041;49.718;21.798;2022-09-30T08:18:26;8.13;;;4.35;;
17832;SDS011;9041;49.718;21.798;2022-09-30T08:20:53;7.32;;;4.13;;
17832;SDS011;9041;49.718;21.798;2022-09-30T08:23:20;13.15;;;5.72;;
17832;SDS011;9041;49.718;21.798;2022-09-30T08:25:49;11.73;;;5.38;;
17832;SDS011;9041;49.718;21.798;2022-09-30T08:28:15;13.90;;;7.63;;
17832;SDS011;9041;49.718;21.798;2022-09-30T08:30:43;17.88;;;8.60;;
17832;SDS011;9041;49.718;21.798;2022-09-30T08:33:10;12.48;;;6.68;;
17832;SDS011;9041;49.718;21.798;2022-09-30T08:35:36;7.45;;;5.18;;
17832;SDS011;9041;49.718;21.798;2022-09-30T08:38:03;7.90;;;5.05;;
17832;SDS011;9041;49.718;21.798;2022-09-30T08:40:31;7.47;;;4.85;;
17832;SDS011;9041;49.718;21.798;2022-09-30T08:43:06;10.27;;;5.32;;
17832;SDS011;9041;49.718;21.798;2022-09-30T08:45:43;8.90;;;4.90;;
17832;SDS011;9041;49.718;21.798;2022-09-30T08:48:19;11.77;;;6.50;;
17832;SDS011;9041;49.718;21.798;2022-09-30T08:50:55;9.00;;;5.70;;
17832;SDS011;9041;49.718;21.798;2022-09-30T08:53:28;9.40;;;5.10;;
17832;SDS011;9041;49.718;21.798;2022-09-30T08:55:59;7.30;;;4.38;;
17832;SDS011;9041;49.718;21.798;2022-09-30T08:58:29;11.35;;;5.20;;
17832;SDS011;9041;49.718;21.798;2022-09-30T09:00:59;7.88;;;4.53;;
17832;SDS011;9041;49.718;21.798;2022-09-30T09:03:29;9.02;;;5.40;;
17832;SDS011;9041;49.718;21.798;2022-09-30T09:06:03;8.10;;;5.40;;
17832;SDS011;9041;49.718;21.798;2022-09-30T09:08:39;9.00;;;6.20;;
17832;SDS011;9041;49.718;21.798;2022-09-30T09:11:16;10.25;;;5.70;;
17832;SDS011;9041;49.718;21.798;2022-09-30T09:14:02;7.32;;;5.03;;
17832;SDS011;9041;49.718;21.798;2022-09-30T09:16:33;7.60;;;4.85;;
17832;SDS011;9041;49.718;21.798;2022-09-30T09:19:05;7.13;;;4.70;;
17832;SDS011;9041;49.718;21.798;2022-09-30T09:21:41;7.10;;;4.43;;
17832;SDS011;9041;49.718;21.798;2022-09-30T09:24:21;6.60;;;4.50;;
17832;SDS011;9041;49.718;21.798;2022-09-30T09:26:50;14.30;;;6.22;;
17832;SDS011;9041;49.718;21.798;2022-09-30T09:29:24;8.35;;;5.22;;
17832;SDS011;9041;49.718;21.798;2022-09-30T09:32:00;10.63;;;6.20;;
17832;SDS011;9041;49.718;21.798;2022-09-30T09:34:28;11.95;;;6.28;;
17832;SDS011;9041;49.718;21.798;2022-09-30T09:37:03;13.05;;;7.25;;
17832;SDS011;9041;49.718;21.798;2022-09-30T09:39:45;20.08;;;9.15;;
17832;SDS011;9041;49.718;21.798;2022-09-30T09:42:28;17.63;;;9.00;;
17832;SDS011;9041;49.718;21.798;2022-09-30T09:45:03;14.35;;;8.82;;
17832;SDS011;9041;49.718;21.798;2022-09-30T09:47:36;24.67;;;13.95;;
17832;SDS011;9041;49.718;21.798;2022-09-30T09:50:05;17.95;;;9.88;;
17832;SDS011;9041;49.718;21.798;2022-09-30T09:52:51;11.45;;;6.70;;
17832;SDS011;9041;49.718;21.798;2022-09-30T09:55:27;14.27;;;8.10;;
17832;SDS011;9041;49.718;21.798;2022-09-30T09:58:05;9.57;;;5.85;;
17832;SDS011;9041;49.718;21.798;2022-09-30T10:00:34;11.88;;;5.55;;
17832;SDS011;9041;49.718;21.798;2022-09-30T10:03:21;9.38;;;5.50;;
17832;SDS011;9041;49.718;21.798;2022-09-30T10:06:03;9.98;;;6.03;;
17832;SDS011;9041;49.718;21.798;2022-09-30T10:08:31;8.25;;;5.70;;
17832;SDS011;9041;49.718;21.798;2022-09-30T10:11:00;9.68;;;5.45;;
17832;SDS011;9041;49.718;21.798;2022-09-30T10:13:29;9.98;;;5.50;;
17832;SDS011;9041;49.718;21.798;2022-09-30T10:15:59;8.98;;;5.38;;
17832;SDS011;9041;49.718;21.798;2022-09-30T10:18:27;8.70;;;5.13;;
17832;SDS011;9041;49.718;21.798;2022-09-30T10:21:00;10.98;;;5.63;;
17832;SDS011;9041;49.718;21.798;2022-09-30T10:23:29;7.40;;;5.20;;
17832;SDS011;9041;49.718;21.798;2022-09-30T10:26:01;7.50;;;4.53;;
17832;SDS011;9041;49.718;21.798;2022-09-30T10:28:30;9.70;;;5.22;;
17832;SDS011;9041;49.718;21.798;2022-09-30T10:31:01;9.32;;;5.57;;
17832;SDS011;9041;49.718;21.798;2022-09-30T10:33:30;6.85;;;4.75;;
17832;SDS011;9041;49.718;21.798;2022-09-30T10:36:03;6.78;;;4.78;;
17832;SDS011;9041;49.718;21.798;2022-09-30T10:38:32;6.68;;;4.78;;
17832;SDS011;9041;49.718;21.798;2022-09-30T10:41:00;10.43;;;5.82;;
17832;SDS011;9041;49.718;21.798;2022-09-30T10:43:29;12.10;;;6.53;;
17832;SDS011;9041;49.718;21.798;2022-09-30T10:46:01;12.52;;;6.78;;
17832;SDS011;9041;49.718;21.798;2022-09-30T10:48:34;11.38;;;5.07;;
17832;SDS011;9041;49.718;21.798;2022-09-30T10:51:01;8.05;;;5.30;;
17832;SDS011;9041;49.718;21.798;2022-09-30T10:53:30;6.70;;;4.35;;
17832;SDS011;9041;49.718;21.798;2022-09-30T10:55:57;5.13;;;3.60;;
17832;SDS011;9041;49.718;21.798;2022-09-30T10:58:29;6.53;;;4.32;;
17832;SDS011;9041;49.718;21.798;2022-09-30T11:01:08;5.43;;;3.30;;
17832;SDS011;9041;49.718;21.798;2022-09-30T11:03:43;6.80;;;3.83;;
17832;SDS011;9041;49.718;21.798;2022-09-30T11:06:14;5.75;;;3.90;;
17832;SDS011;9041;49.718;21.798;2022-09-30T11:08:43;3.90;;;3.28;;
17832;SDS011;9041;49.718;21.798;2022-09-30T11:11:13;5.90;;;4.00;;
17832;SDS011;9041;49.718;21.798;2022-09-30T11:13:41;6.38;;;3.95;;
17832;SDS011;9041;49.718;21.798;2022-09-30T11:16:14;6.18;;;4.00;;
17832;SDS011;9041;49.718;21.798;2022-09-30T11:18:46;6.30;;;4.18;;
17832;SDS011;9041;49.718;21.798;2022-09-30T11:21:15;6.57;;;3.65;;
17832;SDS011;9041;49.718;21.798;2022-09-30T11:23:45;6.22;;;4.32;;
17832;SDS011;9041;49.718;21.798;2022-09-30T11:26:16;6.63;;;4.38;;
17832;SDS011;9041;49.718;21.798;2022-09-30T11:28:51;5.72;;;4.05;;
17832;SDS011;9041;49.718;21.798;2022-09-30T11:31:28;7.63;;;4.60;;
17832;SDS011;9041;49.718;21.798;2022-09-30T11:34:01;6.50;;;4.75;;
17832;SDS011;9041;49.718;21.798;2022-09-30T11:36:38;6.53;;;4.70;;
17832;SDS011;9041;49.718;21.798;2022-09-30T11:41:59;10.98;;;5.55;;
17832;SDS011;9041;49.718;21.798;2022-09-30T11:44:31;10.25;;;5.93;;
17832;SDS011;9041;49.718;21.798;2022-09-30T11:47:17;9.98;;;6.32;;
17832;SDS011;9041;49.718;21.798;2022-09-30T11:50:03;10.93;;;6.00;;
17832;SDS011;9041;49.718;21.798;2022-09-30T11:52:43;7.32;;;4.40;;
17832;SDS011;9041;49.718;21.798;2022-09-30T11:55:26;7.22;;;3.70;;
17832;SDS011;9041;49.718;21.798;2022-09-30T11:58:01;5.68;;;3.78;;
17832;SDS011;9041;49.718;21.798;2022-09-30T12:00:30;5.93;;;4.05;;
17832;SDS011;9041;49.718;21.798;2022-09-30T12:03:03;6.15;;;3.88;;
17832;SDS011;9041;49.718;21.798;2022-09-30T12:05:34;8.20;;;4.15;;
17832;SDS011;9041;49.718;21.798;2022-09-30T12:08:05;6.72;;;4.40;;
17832;SDS011;9041;49.718;21.798;2022-09-30T12:10:44;5.97;;;4.18;;
17832;SDS011;9041;49.718;21.798;2022-09-30T12:13:15;6.78;;;3.63;;
17832;SDS011;9041;49.718;21.798;2022-09-30T12:15:44;5.80;;;3.58;;
17832;SDS011;9041;49.718;21.798;2022-09-30T12:18:14;6.43;;;4.00;;
17832;SDS011;9041;49.718;21.798;2022-09-30T12:20:46;6.63;;;4.07;;
17832;SDS011;9041;49.718;21.798;2022-09-30T12:23:16;19.73;;;8.32;;
17832;SDS011;9041;49.718;21.798;2022-09-30T12:25:46;34.50;;;14.60;;
17832;SDS011;9041;49.718;21.798;2022-09-30T12:28:19;48.95;;;19.65;;
17832;SDS011;9041;49.718;21.798;2022-09-30T12:31:10;35.45;;;16.10;;
17832;SDS011;9041;49.718;21.798;2022-09-30T12:33:51;25.90;;;12.15;;
17832;SDS011;9041;49.718;21.798;2022-09-30T12:36:32;18.02;;;8.77;;
17832;SDS011;9041;49.718;21.798;2022-09-30T12:42:24;6.85;;;4.57;;
17832;SDS011;9041;49.718;21.798;2022-09-30T12:47:59;6.22;;;4.03;;
17832;SDS011;9041;49.718;21.798;2022-09-30T12:50:34;7.32;;;4.03;;
17832;SDS011;9041;49.718;21.798;2022-09-30T12:53:11;8.35;;;4.30;;
17832;SDS011;9041;49.718;21.798;2022-09-30T12:55:42;7.25;;;4.60;;
17832;SDS011;9041;49.718;21.798;2022-09-30T12:58:16;6.70;;;4.95;;
17832;SDS011;9041;49.718;21.798;2022-09-30T13:00:57;5.50;;;4.85;;
17832;SDS011;9041;49.718;21.798;2022-09-30T13:03:26;8.43;;;5.78;;
17832;SDS011;9041;49.718;21.798;2022-09-30T13:05:55;9.55;;;5.72;;
17832;SDS011;9041;49.718;21.798;2022-09-30T13:14:17;9.80;;;5.72;;
17832;SDS011;9041;49.718;21.798;2022-09-30T13:19:51;11.27;;;6.82;;
17832;SDS011;9041;49.718;21.798;2022-09-30T13:25:25;11.93;;;6.93;;
17832;SDS011;9041;49.718;21.798;2022-09-30T13:27:53;9.05;;;6.40;;
17832;SDS011;9041;49.718;21.798;2022-09-30T13:30:49;8.70;;;6.15;;
17832;SDS011;9041;49.718;21.798;2022-09-30T13:33:41;17.48;;;9.02;;
17832;SDS011;9041;49.718;21.798;2022-09-30T13:36:17;13.45;;;6.22;;
17832;SDS011;9041;49.718;21.798;2022-09-30T13:39:06;10.35;;;5.80;;
17832;SDS011;9041;49.718;21.798;2022-09-30T13:41:54;9.70;;;5.47;;
17832;SDS011;9041;49.718;21.798;2022-09-30T13:44:29;11.18;;;6.00;;
17832;SDS011;9041;49.718;21.798;2022-09-30T13:46:58;13.10;;;6.78;;
17832;SDS011;9041;49.718;21.798;2022-09-30T13:49:33;12.13;;;6.60;;
17832;SDS011;9041;49.718;21.798;2022-09-30T13:52:06;12.00;;;6.60;;
17832;SDS011;9041;49.718;21.798;2022-09-30T13:54:36;12.90;;;6.72;;
17832;SDS011;9041;49.718;21.798;2022-09-30T13:57:05;14.73;;;8.05;;
17832;SDS011;9041;49.718;21.798;2022-09-30T13:59:38;13.98;;;8.07;;
17832;SDS011;9041;49.718;21.798;2022-09-30T14:02:17;17.63;;;9.98;;
17832;SDS011;9041;49.718;21.798;2022-09-30T14:05:21;19.95;;;10.52;;
17832;SDS011;9041;49.718;21.798;2022-09-30T14:08:12;19.55;;;10.13;;
17832;SDS011;9041;49.718;21.798;2022-09-30T14:11:13;17.38;;;9.13;;
17832;SDS011;9041;49.718;21.798;2022-09-30T14:13:56;18.05;;;10.77;;
17832;SDS011;9041;49.718;21.798;2022-09-30T14:16:39;22.15;;;13.00;;
17832;SDS011;9041;49.718;21.798;2022-09-30T14:22:18;27.92;;;15.77;;
17832;SDS011;9041;49.718;21.798;2022-09-30T14:24:50;18.45;;;10.27;;
17832;SDS011;9041;49.718;21.798;2022-09-30T14:27:33;13.68;;;8.25;;
17832;SDS011;9041;49.718;21.798;2022-09-30T14:30:05;10.10;;;6.00;;
17832;SDS011;9041;49.718;21.798;2022-09-30T14:32:38;11.88;;;7.28;;
17832;SDS011;9041;49.718;21.798;2022-09-30T14:35:11;12.23;;;7.13;;
17832;SDS011;9041;49.718;21.798;2022-09-30T14:37:42;30.92;;;9.60;;
17832;SDS011;9041;49.718;21.798;2022-09-30T14:40:15;20.33;;;10.25;;
17832;SDS011;9041;49.718;21.798;2022-09-30T14:42:45;9.55;;;6.50;;
17832;SDS011;9041;49.718;21.798;2022-09-30T14:45:21;18.88;;;7.90;;
17832;SDS011;9041;49.718;21.798;2022-09-30T14:47:52;15.25;;;7.72;;
17832;SDS011;9041;49.718;21.798;2022-09-30T14:50:22;13.77;;;8.10;;
17832;SDS011;9041;49.718;21.798;2022-09-30T14:52:52;16.42;;;7.25;;
17832;SDS011;9041;49.718;21.798;2022-09-30T14:55:24;14.68;;;7.32;;
17832;SDS011;9041;49.718;21.798;2022-09-30T14:58:16;17.17;;;7.65;;
17832;SDS011;9041;49.718;21.798;2022-09-30T15:00:55;15.85;;;8.57;;
17832;SDS011;9041;49.718;21.798;2022-09-30T15:03:26;18.15;;;10.25;;
17832;SDS011;9041;49.718;21.798;2022-09-30T15:05:59;15.07;;;6.50;;
17832;SDS011;9041;49.718;21.798;2022-09-30T15:08:26;10.80;;;6.53;;
17832;SDS011;9041;49.718;21.798;2022-09-30T15:10:53;14.50;;;6.85;;
17832;SDS011;9041;49.718;21.798;2022-09-30T15:13:23;14.10;;;8.32;;
17832;SDS011;9041;49.718;21.798;2022-09-30T15:15:52;13.30;;;6.70;;
17832;SDS011;9041;49.718;21.798;2022-09-30T15:18:25;8.85;;;6.22;;
17832;SDS011;9041;49.718;21.798;2022-09-30T15:20:56;11.23;;;6.90;;
17832;SDS011;9041;49.718;21.798;2022-09-30T15:23:25;12.85;;;7.93;;
17832;SDS011;9041;49.718;21.798;2022-09-30T15:25:54;14.10;;;8.50;;
17832;SDS011;9041;49.718;21.798;2022-09-30T15:28:23;12.90;;;6.75;;
17832;SDS011;9041;49.718;21.798;2022-09-30T15:30:50;8.88;;;5.70;;
17832;SDS011;9041;49.718;21.798;2022-09-30T15:33:20;9.30;;;5.53;;
17832;SDS011;9041;49.718;21.798;2022-09-30T15:35:49;7.10;;;4.85;;
17832;SDS011;9041;49.718;21.798;2022-09-30T15:38:17;5.82;;;4.22;;